createdAt,value
2018-05-10T00:01:24.807Z,9.30
2018-05-10T00:03:52.248Z,9.43
2018-05-10T00:06:19.716Z,10.27
2018-05-10T00:08:47.178Z,10.47
2018-05-10T00:11:14.629Z,9.83
2018-05-10T00:13:42.078Z,11.90
2018-05-10T00:16:10.502Z,7.97
2018-05-10T00:18:37.973Z,9.70
2018-05-10T00:21:05.417Z,12.93
2018-05-10T00:23:32.889Z,7.97
2018-05-10T00:26:00.505Z,10.47
2018-05-10T00:28:27.998Z,7.27
2018-05-10T00:30:55.491Z,8.40
2018-05-10T00:33:22.955Z,9.20
2018-05-10T00:35:50.386Z,8.53
2018-05-10T00:38:17.833Z,8.47
2018-05-10T00:40:45.275Z,8.93
2018-05-10T00:43:12.706Z,8.17
2018-05-10T00:45:40.129Z,9.80
2018-05-10T00:48:07.557Z,8.50
2018-05-10T00:50:35.001Z,9.43
2018-05-10T00:53:02.527Z,9.20
2018-05-10T00:55:30.057Z,7.43
2018-05-10T00:57:57.499Z,9.23
2018-05-10T01:00:24.940Z,10.73
2018-05-10T01:02:52.369Z,10.70
2018-05-10T01:05:19.904Z,7.20
2018-05-10T01:07:47.347Z,7.20
2018-05-10T01:10:14.793Z,10.00
2018-05-10T01:12:42.243Z,7.80
2018-05-10T01:15:09.691Z,7.53
2018-05-10T01:17:37.176Z,10.57
2018-05-10T01:20:04.607Z,7.37
2018-05-10T01:22:32.102Z,9.20
2018-05-10T01:24:59.544Z,10.27
2018-05-10T01:27:27.029Z,8.30
2018-05-10T01:29:54.576Z,9.17
2018-05-10T01:32:22.027Z,8.43
2018-05-10T01:35:01.322Z,7.77
2018-05-10T01:37:28.816Z,8.30
2018-05-10T01:39:56.281Z,7.93
2018-05-10T01:42:23.736Z,9.33
2018-05-10T01:44:51.180Z,7.10
2018-05-10T01:47:18.806Z,8.87
2018-05-10T01:49:46.201Z,7.63
2018-05-10T01:52:13.737Z,8.97
2018-05-10T01:54:41.228Z,7.50
2018-05-10T01:57:08.661Z,7.90
2018-05-10T01:59:36.095Z,10.23
2018-05-10T02:02:03.542Z,11.10
2018-05-10T02:04:30.982Z,10.57
2018-05-10T02:06:58.458Z,10.10
2018-05-10T02:09:25.911Z,8.77
2018-05-10T02:11:53.343Z,9.17
2018-05-10T02:14:20.880Z,9.37
2018-05-10T02:16:48.358Z,10.13
2018-05-10T02:19:15.891Z,8.87
2018-05-10T02:21:43.398Z,8.60
2018-05-10T02:24:11.032Z,9.30
2018-05-10T02:26:38.458Z,10.03
2018-05-10T02:29:05.927Z,9.33
2018-05-10T02:31:33.364Z,9.43
2018-05-10T02:34:00.804Z,9.80
2018-05-10T02:36:28.263Z,10.73
2018-05-10T02:38:55.693Z,8.17
2018-05-10T02:41:23.143Z,9.60
2018-05-10T02:43:50.594Z,9.00
2018-05-10T02:46:18.072Z,10.13
2018-05-10T02:48:45.496Z,7.03
2018-05-10T02:51:12.935Z,7.20
2018-05-10T02:53:40.378Z,9.07
2018-05-10T02:56:07.822Z,7.03
2018-05-10T02:58:35.369Z,10.10
2018-05-10T03:01:02.850Z,7.83
2018-05-10T03:03:30.278Z,10.60
2018-05-10T03:05:57.764Z,9.13
2018-05-10T03:08:25.271Z,11.63
2018-05-10T03:10:52.831Z,10.77
2018-05-10T03:13:20.406Z,7.93
2018-05-10T03:15:47.853Z,8.60
2018-05-10T03:18:15.391Z,8.97
2018-05-10T03:20:42.856Z,8.17
2018-05-10T03:23:10.307Z,11.13
2018-05-10T03:25:37.734Z,9.70
2018-05-10T03:28:05.177Z,11.67
2018-05-10T03:30:32.670Z,10.33
2018-05-10T03:33:00.120Z,12.20
2018-05-10T03:35:27.548Z,11.60
2018-05-10T03:37:54.964Z,8.57
2018-05-10T03:40:22.404Z,12.67
2018-05-10T03:42:49.829Z,9.97
2018-05-10T03:45:17.266Z,9.40
2018-05-10T03:47:44.693Z,9.97
2018-05-10T03:50:12.242Z,12.63
2018-05-10T03:52:39.674Z,10.90
2018-05-10T03:55:07.108Z,11.40
2018-05-10T03:57:34.582Z,10.63
2018-05-10T04:00:02.153Z,9.70
2018-05-10T04:02:41.409Z,10.43
2018-05-10T04:08:26.897Z,11.03
2018-05-10T04:11:06.053Z,11.33
2018-05-10T04:13:33.488Z,10.07
2018-05-10T04:16:00.987Z,10.90
2018-05-10T04:18:28.418Z,13.30
2018-05-10T04:20:56.081Z,9.77
2018-05-10T04:23:23.525Z,11.53
2018-05-10T04:25:50.953Z,9.77
2018-05-10T04:28:18.402Z,10.53
2018-05-10T04:30:45.821Z,9.47
2018-05-10T04:33:13.297Z,10.17
2018-05-10T04:35:40.816Z,10.63
2018-05-10T04:38:08.225Z,11.57
2018-05-10T04:40:35.667Z,9.10
2018-05-10T04:43:03.141Z,11.27
2018-05-10T04:45:30.584Z,9.67
2018-05-10T04:47:58.013Z,9.00
2018-05-10T04:50:25.513Z,11.00
2018-05-10T04:52:52.943Z,8.67
2018-05-10T04:55:20.378Z,8.30
2018-05-10T04:57:47.825Z,7.70
2018-05-10T05:00:15.360Z,8.93
2018-05-10T05:02:42.821Z,9.67
2018-05-10T05:05:10.260Z,10.13
2018-05-10T05:07:37.694Z,8.33
2018-05-10T05:10:05.149Z,7.60
2018-05-10T05:12:32.583Z,7.57
2018-05-10T05:15:00.041Z,10.93
2018-05-10T05:17:27.537Z,7.27
2018-05-10T05:19:55.028Z,7.60
2018-05-10T05:22:22.452Z,8.37
2018-05-10T05:24:49.917Z,8.57
2018-05-10T05:27:17.368Z,7.83
2018-05-10T05:29:44.836Z,6.67
2018-05-10T05:32:12.286Z,8.83
2018-05-10T05:34:39.763Z,6.83
2018-05-10T05:37:07.184Z,9.20
2018-05-10T05:39:34.638Z,9.07
2018-05-10T05:42:02.087Z,7.10
2018-05-10T05:44:29.568Z,7.67
2018-05-10T05:46:56.997Z,9.20
2018-05-10T05:49:24.430Z,7.60
2018-05-10T05:51:51.881Z,7.03
2018-05-10T05:54:19.331Z,9.63
2018-05-10T05:56:46.809Z,8.20
2018-05-10T05:59:14.242Z,8.27
2018-05-10T06:01:41.675Z,9.27
2018-05-10T06:04:09.125Z,9.10
2018-05-10T06:06:36.614Z,8.83
2018-05-10T06:09:05.898Z,9.50
2018-05-10T06:11:33.396Z,11.87
2018-05-10T06:14:00.834Z,10.83
2018-05-10T06:16:28.267Z,9.10
2018-05-10T06:18:55.700Z,14.67
2018-05-10T06:21:23.121Z,10.00
2018-05-10T06:23:50.549Z,9.37
2018-05-10T06:26:17.966Z,9.63
2018-05-10T06:28:45.428Z,8.80
2018-05-10T06:31:12.916Z,8.80
2018-05-10T06:33:40.352Z,9.00
2018-05-10T06:36:07.792Z,8.97
2018-05-10T06:38:35.266Z,9.13
2018-05-10T06:41:02.708Z,8.80
2018-05-10T06:43:30.164Z,12.63
2018-05-10T06:45:57.658Z,7.40
2018-05-10T06:48:25.108Z,8.20
2018-05-10T06:50:52.578Z,10.47
2018-05-10T06:53:20.021Z,8.73
2018-05-10T06:55:47.459Z,8.57
2018-05-10T06:58:14.893Z,7.47
2018-05-10T07:00:42.377Z,9.37
2018-05-10T07:03:09.809Z,7.40
2018-05-10T07:05:37.493Z,7.90
2018-05-10T07:08:05.076Z,8.20
2018-05-10T07:10:32.582Z,9.37
2018-05-10T07:13:00.127Z,10.77
2018-05-10T07:15:27.622Z,7.57
2018-05-10T07:17:55.084Z,9.30
2018-05-10T07:20:22.546Z,9.80
2018-05-10T07:22:50.079Z,10.53
2018-05-10T07:25:17.611Z,11.97
2018-05-10T07:27:45.080Z,8.00
2018-05-10T07:30:12.473Z,8.97
2018-05-10T07:32:39.913Z,7.43
2018-05-10T07:35:07.352Z,6.73
2018-05-10T07:37:34.782Z,9.00
2018-05-10T07:40:02.217Z,9.43
2018-05-10T07:42:29.670Z,11.20
2018-05-10T07:44:57.115Z,10.10
2018-05-10T07:47:24.708Z,8.60
2018-05-10T07:49:56.417Z,8.43
2018-05-10T07:52:23.877Z,8.33
2018-05-10T07:54:51.316Z,9.53
2018-05-10T07:57:19.023Z,9.17
2018-05-10T07:59:54.691Z,9.10
2018-05-10T08:02:22.417Z,12.40
2018-05-10T08:04:49.937Z,11.50
2018-05-10T08:07:17.389Z,12.00
2018-05-10T08:09:44.842Z,10.60
2018-05-10T08:12:12.353Z,10.03
2018-05-10T08:14:39.794Z,11.43
2018-05-10T08:17:07.277Z,11.07
2018-05-10T08:19:34.759Z,11.10
2018-05-10T08:22:02.192Z,10.57
2018-05-10T08:24:29.681Z,29.27
2018-05-10T08:26:57.212Z,15.57
2018-05-10T08:29:32.474Z,10.53
2018-05-10T08:31:59.905Z,16.07
2018-05-10T08:34:27.795Z,12.00
2018-05-10T08:36:55.319Z,9.93
2018-05-10T08:39:22.749Z,12.23
2018-05-10T08:41:50.237Z,10.30
2018-05-10T08:44:17.714Z,11.63
2018-05-10T08:46:45.156Z,10.93
2018-05-10T08:49:12.605Z,13.30
2018-05-10T08:51:40.090Z,13.10
2018-05-10T08:54:07.536Z,10.07
2018-05-10T08:56:35.001Z,9.80
2018-05-10T08:59:02.459Z,10.67
2018-05-10T09:01:29.905Z,10.87
2018-05-10T09:03:57.345Z,10.43
2018-05-10T09:06:30.805Z,10.27
2018-05-10T09:08:58.250Z,5.77
2018-05-10T09:11:25.684Z,7.07
2018-05-10T09:13:53.144Z,7.17
2018-05-10T09:16:20.573Z,4.80
2018-05-10T09:18:48.021Z,4.77
2018-05-10T09:21:15.576Z,5.03
2018-05-10T09:23:43.040Z,5.27
2018-05-10T09:26:10.529Z,6.93
2018-05-10T09:28:37.977Z,6.83
2018-05-10T09:31:05.483Z,7.73
2018-05-10T09:33:33.005Z,6.20
2018-05-10T09:36:00.435Z,6.20
2018-05-10T09:38:27.880Z,6.53
2018-05-10T09:40:55.332Z,7.57
2018-05-10T09:43:22.767Z,7.77
2018-05-10T09:45:50.227Z,7.67
2018-05-10T09:48:17.689Z,8.13
2018-05-10T09:50:45.268Z,6.47
2018-05-10T09:53:12.696Z,5.60
2018-05-10T09:55:40.225Z,6.30
2018-05-10T09:58:07.780Z,5.53
2018-05-10T10:00:35.214Z,5.50
2018-05-10T10:03:02.685Z,4.83
2018-05-10T10:05:30.105Z,4.50
2018-05-10T10:07:57.590Z,3.80
2018-05-10T10:10:25.273Z,3.80
2018-05-10T10:12:52.693Z,3.67
2018-05-10T10:15:20.162Z,5.37
2018-05-10T10:17:47.604Z,4.33
2018-05-10T10:20:15.091Z,3.97
2018-05-10T10:22:42.534Z,5.00
2018-05-10T10:25:10.072Z,5.33
2018-05-10T10:27:37.453Z,4.37
2018-05-10T10:30:04.929Z,4.10
2018-05-10T10:32:32.355Z,4.57
2018-05-10T10:34:59.822Z,6.67
2018-05-10T10:37:27.258Z,6.60
2018-05-10T10:39:54.738Z,10.10
2018-05-10T10:42:22.249Z,6.03
2018-05-10T10:44:49.668Z,8.40
2018-05-10T10:47:17.150Z,5.07
2018-05-10T10:49:44.577Z,6.63
2018-05-10T10:52:12.041Z,6.50
2018-05-10T10:54:39.528Z,4.83
2018-05-10T10:57:07.024Z,5.33
2018-05-10T10:59:34.452Z,5.60
2018-05-10T11:02:01.900Z,5.30
2018-05-10T11:04:29.334Z,4.10
2018-05-10T11:06:56.799Z,4.53
2018-05-10T11:09:24.224Z,3.80
2018-05-10T11:11:51.647Z,3.73
2018-05-10T11:14:19.115Z,3.20
2018-05-10T11:16:47.489Z,3.00
2018-05-10T11:19:14.977Z,3.30
2018-05-10T11:21:43.050Z,2.30
2018-05-10T11:24:10.511Z,2.00
2018-05-10T11:26:37.961Z,20.53
2018-05-10T11:29:05.424Z,8.90
2018-05-10T11:31:32.905Z,5.43
2018-05-10T11:34:00.442Z,2.53
2018-05-10T11:36:27.907Z,7.20
2018-05-10T11:38:55.467Z,4.80
2018-05-10T11:41:22.984Z,5.60
2018-05-10T11:43:50.383Z,2.30
2018-05-10T11:46:17.817Z,3.77
2018-05-10T11:48:45.306Z,3.80
2018-05-10T11:51:12.724Z,6.50
2018-05-10T11:53:40.264Z,3.03
2018-05-10T11:56:08.137Z,2.53
2018-05-10T11:58:35.567Z,3.40
2018-05-10T12:01:03.105Z,2.37
2018-05-10T12:03:30.544Z,4.60
2018-05-10T12:05:58.000Z,4.30
2018-05-10T12:08:25.577Z,2.20
2018-05-10T12:10:53.012Z,1.70
2018-05-10T12:13:20.462Z,2.70
2018-05-10T12:15:47.899Z,2.97
2018-05-10T12:18:15.365Z,2.35
2018-05-10T12:20:42.806Z,3.20
2018-05-10T12:23:10.246Z,2.90
2018-05-10T12:25:37.828Z,2.37
2018-05-10T12:28:05.208Z,2.23
2018-05-10T12:30:32.696Z,3.13
2018-05-10T12:33:00.125Z,2.33
2018-05-10T12:35:27.569Z,3.25
2018-05-10T12:37:55.002Z,2.20
2018-05-10T12:40:22.433Z,2.62
2018-05-10T12:42:49.879Z,2.60
2018-05-10T12:45:17.326Z,3.00
2018-05-10T12:47:44.872Z,4.43
2018-05-10T12:50:12.379Z,5.62
2018-05-10T12:52:39.842Z,4.70
2018-05-10T12:55:07.347Z,9.07
2018-05-10T12:57:34.796Z,8.20
2018-05-10T13:00:02.231Z,8.53
2018-05-10T13:02:29.674Z,6.80
2018-05-10T13:04:57.196Z,7.03
2018-05-10T13:07:24.616Z,6.70
2018-05-10T13:09:52.176Z,7.47
2018-05-10T13:12:19.641Z,7.23
2018-05-10T13:14:47.203Z,7.23
2018-05-10T13:17:14.630Z,6.90
2018-05-10T13:19:42.121Z,6.33
2018-05-10T13:22:09.549Z,6.30
2018-05-10T13:24:36.981Z,6.23
2018-05-10T13:27:04.432Z,5.00
2018-05-10T13:29:31.865Z,3.90
2018-05-10T13:31:59.325Z,3.93
2018-05-10T13:34:26.886Z,2.63
2018-05-10T13:36:54.314Z,3.60
2018-05-10T13:39:21.750Z,2.17
2018-05-10T13:41:49.195Z,3.30
2018-05-10T13:44:16.706Z,1.40
2018-05-10T13:46:44.154Z,1.30
2018-05-10T13:49:11.626Z,1.60
2018-05-10T13:51:39.066Z,1.10
2018-05-10T13:54:06.515Z,1.57
2018-05-10T13:56:33.975Z,2.47
2018-05-10T13:59:01.468Z,3.00
2018-05-10T14:01:28.845Z,2.03
2018-05-10T14:03:56.341Z,3.77
2018-05-10T14:06:23.768Z,5.70
2018-05-10T14:08:51.282Z,6.50
2018-05-10T14:11:18.716Z,5.07
2018-05-10T14:13:46.230Z,5.97
2018-05-10T14:16:13.676Z,5.20
2018-05-10T14:18:41.209Z,4.27
2018-05-10T14:21:08.645Z,5.00
2018-05-10T14:23:36.225Z,7.07
2018-05-10T14:26:03.670Z,5.50
2018-05-10T14:28:31.109Z,4.87
2018-05-10T14:30:58.586Z,6.67
2018-05-10T14:33:26.015Z,5.57
2018-05-10T14:35:53.496Z,8.70
2018-05-10T14:38:20.961Z,10.47
2018-05-10T14:40:48.405Z,10.10
2018-05-10T14:43:15.917Z,8.90
2018-05-10T14:45:43.417Z,8.87
2018-05-10T14:48:10.863Z,9.00
2018-05-10T14:50:38.344Z,10.30
2018-05-10T14:53:05.906Z,12.67
2018-05-10T14:55:33.418Z,16.43
2018-05-10T14:58:00.838Z,11.80
2018-05-10T15:00:28.520Z,10.23
2018-05-10T15:02:56.337Z,9.83
2018-05-10T15:05:23.780Z,11.03
2018-05-10T15:07:51.279Z,10.17
2018-05-10T15:10:18.815Z,10.03
2018-05-10T15:12:46.268Z,8.67
2018-05-10T15:15:13.726Z,9.53
2018-05-10T15:17:41.190Z,10.53
2018-05-10T15:20:08.752Z,13.57
2018-05-10T15:22:36.202Z,9.73
2018-05-10T15:25:03.685Z,10.70
2018-05-10T15:27:31.139Z,12.20
2018-05-10T15:29:58.571Z,10.90
2018-05-10T15:32:26.042Z,12.60
2018-05-10T15:34:53.524Z,11.67
2018-05-10T15:37:21.067Z,13.30
2018-05-10T15:39:48.533Z,12.47
2018-05-10T15:42:16.027Z,13.97
2018-05-10T15:44:43.491Z,12.67
2018-05-10T15:47:10.943Z,21.53
2018-05-10T15:49:38.411Z,16.00
2018-05-10T15:52:05.855Z,14.13
2018-05-10T15:54:33.470Z,15.53
2018-05-10T15:57:01.032Z,16.07
2018-05-10T15:59:28.671Z,19.33
2018-05-10T16:01:56.057Z,14.60
2018-05-10T16:04:23.586Z,17.07
2018-05-10T16:06:51.039Z,14.40
2018-05-10T16:09:18.498Z,16.37
2018-05-10T16:11:45.970Z,14.67
2018-05-10T16:14:13.408Z,12.63
2018-05-10T16:16:40.985Z,15.03
2018-05-10T16:19:08.440Z,15.40
2018-05-10T16:21:35.931Z,11.17
2018-05-10T16:24:03.559Z,11.60
2018-05-10T16:26:31.064Z,10.73
2018-05-10T16:28:58.489Z,11.93
2018-05-10T16:31:25.932Z,15.57
2018-05-10T16:33:53.485Z,11.67
2018-05-10T16:36:20.978Z,10.77
2018-05-10T16:38:48.621Z,10.13
2018-05-10T16:41:16.170Z,11.67
2018-05-10T16:43:43.623Z,9.43
2018-05-10T16:46:11.081Z,9.10
2018-05-10T16:48:38.745Z,5.40
2018-05-10T16:51:06.207Z,10.47
2018-05-10T16:53:33.641Z,7.43
2018-05-10T16:56:01.112Z,10.07
2018-05-10T16:58:28.545Z,8.70
2018-05-10T17:00:56.003Z,9.73
2018-05-10T17:03:23.448Z,6.80
2018-05-10T17:05:50.933Z,8.23
2018-05-10T17:08:18.394Z,8.23
2018-05-10T17:10:45.860Z,9.40
2018-05-10T17:13:13.280Z,10.40
2018-05-10T17:15:40.797Z,13.37
2018-05-10T17:18:08.438Z,10.83
2018-05-10T17:20:35.877Z,6.90
2018-05-10T17:23:03.549Z,10.33
2018-05-10T17:25:30.980Z,10.33
2018-05-10T17:27:58.454Z,15.77
2018-05-10T17:30:25.889Z,14.33
2018-05-10T17:32:53.345Z,10.47
2018-05-10T17:35:20.796Z,10.17
2018-05-10T17:37:48.221Z,11.37
2018-05-10T17:40:15.683Z,12.10
2018-05-10T17:42:43.126Z,14.53
2018-05-10T17:45:10.666Z,7.83
2018-05-10T17:47:38.101Z,10.23
2018-05-10T17:50:05.566Z,12.63
2018-05-10T17:52:32.998Z,8.73
2018-05-10T17:55:00.460Z,11.90
2018-05-10T17:57:27.907Z,9.27
2018-05-10T17:59:55.358Z,13.13
2018-05-10T18:02:22.883Z,11.37
2018-05-10T18:04:50.425Z,10.43
2018-05-10T18:07:17.887Z,8.93
2018-05-10T18:09:45.310Z,9.37
2018-05-10T18:12:12.838Z,13.43
2018-05-10T18:14:40.293Z,7.20
2018-05-10T18:17:07.735Z,11.93
2018-05-10T18:19:35.199Z,11.10
2018-05-10T18:22:02.732Z,8.20
2018-05-10T18:24:30.177Z,8.60
2018-05-10T18:26:57.597Z,9.87
2018-05-10T18:29:25.025Z,5.03
2018-05-10T18:31:52.472Z,8.93
2018-05-10T18:34:19.904Z,7.93
2018-05-10T18:36:47.373Z,10.90
2018-05-10T18:39:14.795Z,8.77
2018-05-10T18:41:42.287Z,9.83
2018-05-10T18:44:09.714Z,11.33
2018-05-10T18:46:37.162Z,7.87
2018-05-10T18:49:04.658Z,10.57
2018-05-10T18:51:32.091Z,8.80
2018-05-10T18:53:59.703Z,8.87
2018-05-10T18:56:27.150Z,10.00
2018-05-10T18:58:54.576Z,10.07
2018-05-10T19:01:22.019Z,6.13
2018-05-10T19:03:49.468Z,6.20
2018-05-10T19:06:16.970Z,7.27
2018-05-10T19:08:44.420Z,10.13
2018-05-10T19:11:11.863Z,7.93
2018-05-10T19:13:39.389Z,10.27
2018-05-10T19:16:06.830Z,9.07
2018-05-10T19:18:34.293Z,9.23
2018-05-10T19:21:01.766Z,6.70
2018-05-10T19:23:29.348Z,6.60
2018-05-10T19:25:56.922Z,7.13
2018-05-10T19:28:24.363Z,6.47
2018-05-10T19:30:51.822Z,8.70
2018-05-10T19:33:19.255Z,8.53
2018-05-10T19:35:46.754Z,7.80
2018-05-10T19:38:14.357Z,5.27
2018-05-10T19:40:41.749Z,7.10
2018-05-10T19:43:09.202Z,5.73
2018-05-10T19:45:36.644Z,9.07
2018-05-10T19:48:04.076Z,9.33
2018-05-10T19:50:31.525Z,5.93
2018-05-10T19:52:58.964Z,5.27
2018-05-10T19:55:26.404Z,7.40
2018-05-10T19:57:53.870Z,8.43
2018-05-10T20:00:21.296Z,6.40
2018-05-10T20:02:48.749Z,5.87
2018-05-10T20:05:16.237Z,8.53
2018-05-10T20:07:43.671Z,7.60
2018-05-10T20:10:11.193Z,6.10
2018-05-10T20:12:38.624Z,4.57
2018-05-10T20:15:06.184Z,8.67
2018-05-10T20:17:33.641Z,8.33
2018-05-10T20:20:01.074Z,8.30
2018-05-10T20:22:28.524Z,5.97
2018-05-10T20:24:55.964Z,6.27
2018-05-10T20:27:23.414Z,8.80
2018-05-10T20:29:50.897Z,8.10
2018-05-10T20:32:18.436Z,8.37
2018-05-10T20:34:46.214Z,6.07
2018-05-10T20:37:13.737Z,8.97
2018-05-10T20:39:41.282Z,7.17
2018-05-10T20:42:08.862Z,5.27
2018-05-10T20:44:36.666Z,6.17
2018-05-10T20:47:04.126Z,5.37
2018-05-10T20:49:31.585Z,7.30
2018-05-10T20:51:59.143Z,7.67
2018-05-10T20:54:26.620Z,7.67
2018-05-10T20:56:54.044Z,9.53
2018-05-10T20:59:21.531Z,6.73
2018-05-10T21:01:49.077Z,7.87
2018-05-10T21:04:16.536Z,5.33
2018-05-10T21:06:45.159Z,5.40
2018-05-10T21:09:12.582Z,8.40
2018-05-10T21:11:40.005Z,6.07
2018-05-10T21:14:07.432Z,6.50
2018-05-10T21:16:35.096Z,6.00
2018-05-10T21:19:02.495Z,5.83
2018-05-10T21:21:29.929Z,8.53
2018-05-10T21:23:57.687Z,7.13
2018-05-10T21:26:25.133Z,6.90
2018-05-10T21:28:52.574Z,6.23
2018-05-10T21:31:20.003Z,7.70
2018-05-10T21:33:47.469Z,8.37
2018-05-10T21:36:14.901Z,8.07
2018-05-10T21:38:42.332Z,4.67
2018-05-10T21:41:09.776Z,4.50
2018-05-10T21:43:37.248Z,8.90
2018-05-10T21:46:04.817Z,8.13
2018-05-10T21:48:32.249Z,7.83
2018-05-10T21:50:59.679Z,7.87
2018-05-10T21:53:27.106Z,5.63
2018-05-10T21:55:54.536Z,8.97
2018-05-10T21:58:22.114Z,9.20
2018-05-10T22:00:49.544Z,8.47
2018-05-10T22:03:16.964Z,7.03
2018-05-10T22:05:44.417Z,6.30
2018-05-10T22:08:11.849Z,7.40
2018-05-10T22:10:39.314Z,8.47
2018-05-10T22:13:06.974Z,7.23
2018-05-10T22:15:34.425Z,8.40
2018-05-10T22:18:01.946Z,7.40
2018-05-10T22:20:29.335Z,9.40
2018-05-10T22:22:56.758Z,8.03
2018-05-10T22:25:24.214Z,7.17
2018-05-10T22:27:51.653Z,7.80
2018-05-10T22:30:19.097Z,7.53
2018-05-10T22:32:46.634Z,8.03
2018-05-10T22:35:14.167Z,9.33
2018-05-10T22:37:41.569Z,7.73
2018-05-10T22:40:09.025Z,7.80
2018-05-10T22:42:36.558Z,7.87
2018-05-10T22:45:04.052Z,6.20
2018-05-10T22:47:31.588Z,8.83
2018-05-10T22:49:59.157Z,8.50
2018-05-10T22:52:26.699Z,7.20
2018-05-10T22:54:54.156Z,7.73
2018-05-10T22:57:21.597Z,7.37
2018-05-10T22:59:49.101Z,9.43
2018-05-10T23:02:16.528Z,10.53
2018-05-10T23:04:44.008Z,9.27
2018-05-10T23:07:11.458Z,10.37
2018-05-10T23:09:39.006Z,7.67
2018-05-10T23:12:06.399Z,8.17
2018-05-10T23:14:33.910Z,9.13
2018-05-10T23:17:01.383Z,6.57
2018-05-10T23:19:28.865Z,10.53
2018-05-10T23:21:56.429Z,8.27
2018-05-10T23:24:23.861Z,10.60
2018-05-10T23:26:51.415Z,6.60
2018-05-10T23:29:18.856Z,9.57
2018-05-10T23:31:46.283Z,6.57
2018-05-10T23:34:13.769Z,6.53
2018-05-10T23:36:41.239Z,6.97
2018-05-10T23:41:33.275Z,9.10
2018-05-10T23:44:00.715Z,7.40
2018-05-10T23:46:28.162Z,7.60
2018-05-10T23:48:55.641Z,7.97
2018-05-10T23:51:23.101Z,9.77
2018-05-10T23:53:50.541Z,11.03
2018-05-10T23:56:17.989Z,11.27
2018-05-10T23:58:45.422Z,8.27
